Time;durP1;ratioP1;P1;durP2;ratioP2;P2;SDS_P1;SDS_P2;PMS_P1;PMS_P2;Temp;Humidity;BMP_temperature;BMP_pressure;BME280_temperature;BME280_humidity;BME280_pressure;Samples;Min_cycle;Max_cycle;Signal;HPM_P1;HPM_P2
2022/09/20 00:02:16;;;;;;;15.38;4.45;;;8.80;99.90;;;;;;4943643;28;20054;-76
2022/09/20 00:04:42;;;;;;;10.13;3.30;;;8.80;99.90;;;;;;4952460;28;20043;-77
2022/09/20 00:07:07;;;;;;;10.18;3.65;;;8.80;99.90;;;;;;4950767;28;20053;-77
2022/09/20 00:09:33;;;;;;;11.02;2.92;;;8.80;99.90;;;;;;4947720;28;20117;-77
2022/09/20 00:11:59;;;;;;;12.05;3.40;;;8.80;99.90;;;;;;4962422;28;20121;-77
2022/09/20 00:14:24;;;;;;;11.77;3.50;;;8.80;99.90;;;;;;4949829;28;20038;-77
2022/09/20 00:16:50;;;;;;;10.23;3.42;;;8.80;99.90;;;;;;4952648;28;20031;-77
2022/09/20 00:19:17;;;;;;;16.45;3.15;;;8.90;99.90;;;;;;4948755;28;20054;-77
2022/09/20 00:21:43;;;;;;;11.52;3.53;;;9.00;99.90;;;;;;4963900;28;20051;-77
2022/09/20 00:24:09;;;;;;;16.08;4.03;;;9.00;99.90;;;;;;4963064;28;20708;-77
2022/09/20 00:26:35;;;;;;;18.23;4.07;;;8.80;99.90;;;;;;4967678;28;20727;-77
2022/09/20 00:29:00;;;;;;;9.60;4.07;;;8.70;99.90;;;;;;4963267;28;20041;-77
2022/09/20 00:31:26;;;;;;;17.33;4.32;;;8.70;99.90;;;;;;4936202;28;20038;-77
2022/09/20 00:36:39;;;;;;;9.63;2.90;;;8.70;99.90;;;;;;4965943;28;20062;-77
2022/09/20 00:39:05;;;;;;;8.65;2.83;;;8.70;99.90;;;;;;4946414;28;20652;-77
2022/09/20 00:41:31;;;;;;;7.20;2.28;;;8.70;99.90;;;;;;4950775;28;20034;-77
2022/09/20 00:43:57;;;;;;;9.35;3.20;;;8.80;99.90;;;;;;4960881;28;20038;-77
2022/09/20 00:46:35;;;;;;;13.77;3.80;;;8.80;99.90;;;;;;4931659;28;20514;-77
2022/09/20 00:49:15;;;;;;;18.80;4.32;;;8.80;99.90;;;;;;4937027;28;20035;-77
2022/09/20 00:51:44;;;;;;;12.77;4.57;;;8.60;99.90;;;;;;4937656;28;20458;-77
2022/09/20 00:54:09;;;;;;;13.98;4.30;;;8.40;99.90;;;;;;4946258;28;20372;-77
2022/09/20 00:56:36;;;;;;;12.35;3.83;;;8.40;99.90;;;;;;4933148;28;20033;-77
2022/09/20 00:59:04;;;;;;;10.20;2.80;;;8.40;99.90;;;;;;4960887;28;20498;-77
2022/09/20 01:01:31;;;;;;;16.05;4.07;;;8.50;99.90;;;;;;4950310;28;20031;-77
2022/09/20 01:03:56;;;;;;;16.58;6.00;;;8.60;99.90;;;;;;4962851;28;20031;-77
2022/09/20 01:06:22;;;;;;;7.68;2.75;;;8.40;99.90;;;;;;4950061;28;20041;-77
2022/09/20 01:08:49;;;;;;;9.32;3.30;;;8.40;99.90;;;;;;4949640;28;20027;-77
2022/09/20 01:11:16;;;;;;;8.98;2.97;;;8.60;99.90;;;;;;4945661;28;20114;-77
2022/09/20 01:13:43;;;;;;;16.60;5.10;;;8.70;99.90;;;;;;4940691;28;20494;-77
2022/09/20 01:16:08;;;;;;;7.38;2.28;;;8.50;99.90;;;;;;4944194;28;20032;-77
2022/09/20 01:18:34;;;;;;;11.57;3.30;;;8.50;99.90;;;;;;4948817;28;20042;-77
2022/09/20 01:21:00;;;;;;;13.77;3.97;;;8.50;99.90;;;;;;4945803;28;20043;-77
2022/09/20 01:23:36;;;;;;;11.38;3.55;;;8.40;99.90;;;;;;4927674;28;20023;-77
2022/09/20 01:26:08;;;;;;;16.40;4.60;;;8.40;99.90;;;;;;4959601;28;20047;-77
2022/09/20 01:28:33;;;;;;;11.50;3.83;;;8.50;99.90;;;;;;4959707;28;20026;-77
2022/09/20 01:31:14;;;;;;;18.70;4.40;;;8.40;99.90;;;;;;4944700;28;20376;-76
2022/09/20 01:33:53;;;;;;;9.10;2.88;;;8.40;99.90;;;;;;4945234;28;20034;-76
2022/09/20 01:36:33;;;;;;;7.40;3.13;;;8.40;99.90;;;;;;4943642;28;20103;-77
2022/09/20 01:39:07;;;;;;;6.47;2.67;;;8.50;99.90;;;;;;4927151;28;20039;-77
2022/09/20 01:41:57;;;;;;;12.07;3.25;;;8.60;99.90;;;;;;4959869;28;20495;-77
2022/09/20 01:44:55;;;;;;;11.07;3.70;;;8.70;99.90;;;;;;4959264;28;20031;-77
2022/09/20 01:47:46;;;;;;;13.07;4.57;;;8.30;99.90;;;;;;4949298;28;20031;-77
2022/09/20 01:50:24;;;;;;;15.90;4.70;;;8.00;99.90;;;;;;4947079;28;20062;-77
2022/09/20 01:53:08;;;;;;;13.63;5.85;;;7.90;99.90;;;;;;4933403;28;20027;-77
2022/09/20 01:55:48;;;;;;;12.45;4.13;;;7.90;99.90;;;;;;4957638;28;20039;-77
2022/09/20 01:58:28;;;;;;;19.38;5.18;;;7.90;99.90;;;;;;4946044;28;20518;-77
2022/09/20 02:01:12;;;;;;;11.85;3.30;;;8.00;99.90;;;;;;4958564;28;20050;-77
2022/09/20 02:04:01;;;;;;;16.80;4.10;;;8.10;99.90;;;;;;4976665;28;20085;-77
2022/09/20 02:06:41;;;;;;;14.43;4.07;;;7.90;99.90;;;;;;4941560;28;20773;-77
2022/09/20 02:09:11;;;;;;;17.15;4.80;;;7.90;99.90;;;;;;4952151;28;20032;-76
2022/09/20 02:11:45;;;;;;;9.05;3.95;;;7.90;99.90;;;;;;4928379;28;20120;-77
2022/09/20 02:14:26;;;;;;;16.48;4.75;;;8.00;99.90;;;;;;4955216;28;20047;-76
2022/09/20 02:17:01;;;;;;;10.18;3.30;;;8.00;99.90;;;;;;4944339;28;20035;-76
2022/09/20 02:19:30;;;;;;;7.88;2.85;;;8.00;99.90;;;;;;4930564;28;20035;-76
2022/09/20 02:22:16;;;;;;;13.57;3.47;;;8.20;99.90;;;;;;4952465;28;20070;-76
2022/09/20 02:24:56;;;;;;;11.27;5.03;;;8.20;99.90;;;;;;4971429;28;20042;-76
2022/09/20 02:27:45;;;;;;;18.58;7.05;;;7.90;99.90;;;;;;4977044;28;20031;-76
2022/09/20 02:30:46;;;;;;;13.82;6.15;;;7.80;99.90;;;;;;4972539;28;20049;-78
2022/09/20 02:33:44;;;;;;;15.75;6.65;;;7.80;99.90;;;;;;4938288;28;20036;-76
2022/09/20 02:36:16;;;;;;;12.13;5.07;;;7.60;99.90;;;;;;4942595;28;20062;-76
2022/09/20 02:38:56;;;;;;;20.02;6.28;;;7.60;99.90;;;;;;4942499;28;20035;-78
2022/09/20 02:41:49;;;;;;;15.60;7.15;;;7.60;99.90;;;;;;4939627;28;20028;-78
2022/09/20 02:44:34;;;;;;;11.07;4.35;;;7.50;99.90;;;;;;4961098;28;20522;-78
2022/09/20 02:47:26;;;;;;;18.25;7.13;;;7.70;99.90;;;;;;4957847;28;20123;-78
2022/09/20 02:50:12;;;;;;;18.85;7.43;;;7.60;99.90;;;;;;4947492;28;20419;-78
2022/09/20 02:53:05;;;;;;;15.05;7.47;;;7.50;99.90;;;;;;4957964;28;20043;-76
2022/09/20 02:56:05;;;;;;;18.05;7.97;;;7.60;99.90;;;;;;4958255;28;20085;-76
2022/09/20 02:58:51;;;;;;;21.50;7.63;;;7.60;99.90;;;;;;4945956;28;20102;-77
2022/09/20 03:01:55;;;;;;;18.80;7.83;;;7.60;99.90;;;;;;4944519;28;20031;-78
2022/09/20 03:04:59;;;;;;;22.00;7.53;;;7.60;99.90;;;;;;4956238;28;20619;-78
2022/09/20 03:07:39;;;;;;;9.93;4.00;;;7.60;99.90;;;;;;4946491;28;20530;-78
2022/09/20 03:10:06;;;;;;;18.42;5.93;;;7.70;99.90;;;;;;4947276;28;20525;-79
2022/09/20 03:12:56;;;;;;;16.73;7.13;;;7.70;99.90;;;;;;4962839;28;20034;-77
2022/09/20 03:15:44;;;;;;;21.15;6.95;;;7.70;99.90;;;;;;4955906;28;20031;-78
2022/09/20 03:18:18;;;;;;;13.10;4.93;;;7.70;99.90;;;;;;4944364;28;20782;-78
2022/09/20 03:20:58;;;;;;;12.68;5.50;;;7.70;99.90;;;;;;4957628;28;20053;-77
2022/09/20 03:24:14;;;;;;;10.32;5.40;;;7.90;99.90;;;;;;4959137;28;20027;-78
2022/09/20 03:27:04;;;;;;;14.55;6.15;;;7.80;99.90;;;;;;4957470;28;20395;-78
2022/09/20 03:30:00;;;;;;;17.98;8.35;;;7.90;99.90;;;;;;4930787;28;20340;-78
2022/09/20 03:33:07;;;;;;;10.30;4.47;;;7.80;99.90;;;;;;4960273;28;20046;-75
2022/09/20 03:35:36;;;;;;;18.40;6.43;;;7.90;99.90;;;;;;4961823;28;20035;-78
2022/09/20 03:38:21;;;;;;;16.40;5.43;;;7.90;99.90;;;;;;4956697;28;20034;-78
2022/09/20 03:40:46;;;;;;;8.20;4.18;;;7.70;99.90;;;;;;4958752;28;20039;-78
2022/09/20 03:43:30;;;;;;;10.40;3.90;;;7.90;99.90;;;;;;4963519;28;20035;-78
2022/09/20 03:46:18;;;;;;;7.95;4.05;;;7.70;99.90;;;;;;4954434;28;20152;-78
2022/09/20 03:49:21;;;;;;;11.70;6.05;;;8.00;99.90;;;;;;4957756;28;20027;-78
2022/09/20 03:51:53;;;;;;;15.27;6.07;;;8.00;99.90;;;;;;4938237;28;21155;-78
2022/09/20 03:54:39;;;;;;;21.60;6.63;;;7.90;99.90;;;;;;4941126;28;20399;-78
2022/09/20 03:57:41;;;;;;;19.67;7.38;;;7.80;99.90;;;;;;4940054;28;20114;-78
2022/09/20 04:00:12;;;;;;;16.67;6.05;;;7.70;99.90;;;;;;4933128;28;20380;-78
2022/09/20 04:02:52;;;;;;;10.77;4.57;;;7.70;99.90;;;;;;4944942;28;20085;-78
2022/09/20 04:05:39;;;;;;;7.72;4.30;;;7.70;99.90;;;;;;4936008;28;20051;-78
2022/09/20 04:08:48;;;;;;;9.93;4.25;;;7.80;99.90;;;;;;4938765;28;20106;-77
2022/09/20 04:11:34;;;;;;;14.52;6.25;;;8.00;99.90;;;;;;4945540;28;20130;-78
2022/09/20 04:14:03;;;;;;;17.13;7.65;;;7.90;99.90;;;;;;4940620;28;20061;-78
2022/09/20 04:16:41;;;;;;;13.18;5.40;;;7.90;99.90;;;;;;4938121;28;20035;-78
2022/09/20 04:19:43;;;;;;;16.60;6.75;;;7.70;99.90;;;;;;4916509;28;20122;-78
2022/09/20 04:22:09;;;;;;;18.17;6.70;;;7.70;99.90;;;;;;4967777;28;20039;-77
2022/09/20 04:25:11;;;;;;;15.23;6.05;;;7.70;99.90;;;;;;4942369;28;20039;-77
2022/09/20 04:27:50;;;;;;;15.70;7.18;;;7.70;99.90;;;;;;4946193;28;20119;-77
2022/09/20 04:30:18;;;;;;;16.63;7.53;;;7.80;99.90;;;;;;4960511;28;20122;-77
2022/09/20 04:33:04;;;;;;;17.55;7.03;;;7.80;99.90;;;;;;4934954;28;20027;-77
2022/09/20 04:38:35;;;;;;;19.50;6.80;;;8.00;99.90;;;;;;4939429;28;20038;-78
2022/09/20 04:41:20;;;;;;;10.88;6.53;;;8.10;99.90;;;;;;4941160;28;20043;-78
2022/09/20 04:44:13;;;;;;;15.68;7.25;;;8.10;99.90;;;;;;4939229;28;20514;-78
2022/09/20 04:47:18;;;;;;;14.18;7.75;;;8.10;99.90;;;;;;4937207;28;20542;-78
2022/09/20 04:50:09;;;;;;;19.23;7.38;;;8.00;99.90;;;;;;4939324;28;20046;-78
2022/09/20 04:52:43;;;;;;;10.45;5.30;;;8.00;99.90;;;;;;4976394;28;20046;-78
2022/09/20 04:55:17;;;;;;;22.50;7.88;;;8.10;99.90;;;;;;4952985;28;20040;-78
2022/09/20 04:57:59;;;;;;;18.23;7.55;;;8.20;99.90;;;;;;4949841;28;20492;-78
2022/09/20 05:00:25;;;;;;;18.08;8.40;;;8.20;99.90;;;;;;4973874;28;22271;-78
2022/09/20 05:03:04;;;;;;;19.02;6.13;;;8.20;99.90;;;;;;4938863;28;20407;-78
2022/09/20 05:05:54;;;;;;;17.45;7.32;;;8.30;99.90;;;;;;4958268;28;20031;-78
2022/09/20 05:08:39;;;;;;;19.88;7.15;;;8.30;99.90;;;;;;4958255;28;20147;-78
2022/09/20 05:11:08;;;;;;;15.50;7.60;;;8.40;99.90;;;;;;4940276;28;20369;-78
2022/09/20 05:14:21;;;;;;;19.27;8.85;;;8.40;99.90;;;;;;4951568;28;20034;-77
2022/09/20 05:16:59;;;;;;;21.67;9.80;;;8.40;99.90;;;;;;4947336;28;20035;-77
2022/09/20 05:19:28;;;;;;;16.20;8.75;;;8.40;99.90;;;;;;4982342;28;20053;-77
2022/09/20 05:22:02;;;;;;;23.48;9.18;;;8.40;99.90;;;;;;4961126;28;20504;-78
2022/09/20 05:25:02;;;;;;;20.27;9.07;;;8.40;99.90;;;;;;4947451;28;20034;-77
2022/09/20 05:27:51;;;;;;;19.25;8.35;;;8.40;99.90;;;;;;4948572;28;20031;-78
2022/09/20 05:30:25;;;;;;;16.92;7.00;;;8.40;99.90;;;;;;4938122;28;20032;-78
2022/09/20 05:33:28;;;;;;;20.33;7.57;;;8.50;99.90;;;;;;4947212;28;20039;-77
2022/09/20 05:36:03;;;;;;;12.07;6.07;;;8.60;99.90;;;;;;4942112;28;20019;-77
2022/09/20 05:38:38;;;;;;;22.00;7.57;;;8.70;99.90;;;;;;4959659;28;20168;-78
2022/09/20 05:41:33;;;;;;;13.95;5.38;;;8.70;99.90;;;;;;4955176;28;20127;-77
2022/09/20 05:44:17;;;;;;;9.93;4.70;;;8.70;99.90;;;;;;4970139;28;20031;-77
2022/09/20 05:47:17;;;;;;;7.95;3.90;;;8.80;99.90;;;;;;4943736;28;20476;-76
2022/09/20 05:49:53;;;;;;;14.93;5.50;;;8.80;99.90;;;;;;4962166;28;20093;-76
2022/09/20 05:52:28;;;;;;;11.93;4.82;;;8.80;99.90;;;;;;4956994;28;20028;-76
2022/09/20 05:55:14;;;;;;;11.10;6.93;;;8.80;99.90;;;;;;4948287;28;20496;-76
2022/09/20 05:57:55;;;;;;;;;;;8.80;99.90;;;;;;4960105;28;20109;-77
2022/09/20 06:00:25;;;;;;;23.50;8.23;;;8.90;99.90;;;;;;4959475;28;19937;-77
2022/09/20 06:03:29;;;;;;;15.68;6.75;;;8.80;99.90;;;;;;4946569;28;20030;-77
2022/09/20 06:06:01;;;;;;;13.38;6.00;;;8.80;99.90;;;;;;4899622;28;20035;-77
2022/09/20 06:08:49;;;;;;;19.13;6.05;;;8.90;99.90;;;;;;4928008;28;20035;-77
2022/09/20 06:11:45;;;;;;;14.02;6.60;;;8.90;99.90;;;;;;4961443;28;20495;-77
2022/09/20 06:14:17;;;;;;;16.67;7.88;;;8.90;99.90;;;;;;4942546;28;20040;-77
2022/09/20 06:17:03;;;;;;;17.65;8.50;;;8.90;99.90;;;;;;4946739;28;20032;-77
2022/09/20 06:19:32;;;;;;;24.33;8.15;;;8.90;99.90;;;;;;4941450;28;20534;-77
2022/09/20 06:22:02;;;;;;;15.73;7.30;;;9.00;99.90;;;;;;4974803;28;20038;-77
2022/09/20 06:24:49;;;;;;;12.43;5.20;;;9.00;99.90;;;;;;4953027;28;20028;-77
2022/09/20 06:27:18;;;;;;;;;;;9.00;99.90;;;;;;4959125;28;20038;-77
2022/09/20 06:29:47;;;;;;;12.88;6.28;;;9.10;99.90;;;;;;4943860;28;19915;-77
2022/09/20 06:32:16;;;;;;;13.55;7.13;;;9.10;99.90;;;;;;4940800;28;20550;-77
2022/09/20 06:34:41;;;;;;;12.07;5.07;;;9.20;99.90;;;;;;4946990;28;20055;-77
2022/09/20 06:41:27;;;;;;;15.18;6.65;;;9.30;99.90;;;;;;4948823;28;20097;-77
2022/09/20 06:43:44;;;;;;;15.13;6.85;;;9.40;99.90;;;;;;4944981;28;20123;-77
2022/09/20 06:46:11;;;;;;;18.60;7.63;;;9.50;99.90;;;;;;4956202;28;20035;-77
2022/09/20 06:48:38;;;;;;;24.13;8.48;;;9.50;99.90;;;;;;4963676;28;20101;-76
2022/09/20 06:51:06;;;;;;;12.93;6.80;;;9.80;99.90;;;;;;4954221;28;20031;-77
2022/09/20 06:53:32;;;;;;;11.20;6.20;;;9.80;99.90;;;;;;4958375;28;20122;-77
2022/09/20 06:55:58;;;;;;;28.23;8.38;;;10.00;99.90;;;;;;4941048;28;20137;-77
2022/09/20 06:58:25;;;;;;;14.25;6.03;;;10.10;99.90;;;;;;4927778;28;20110;-76
2022/09/20 07:00:53;;;;;;;16.45;7.05;;;10.10;99.90;;;;;;4919672;28;20031;-79
2022/09/20 07:03:19;;;;;;;18.73;8.40;;;10.30;99.90;;;;;;4904921;28;20039;-76
2022/09/20 07:05:45;;;;;;;34.35;10.63;;;10.30;99.90;;;;;;4944382;28;20110;-76
2022/09/20 07:08:11;;;;;;;22.45;9.18;;;10.40;99.90;;;;;;4973905;28;20031;-77
2022/09/20 07:10:38;;;;;;;32.90;10.98;;;10.50;99.90;;;;;;4961554;28;20043;-76
2022/09/20 07:13:04;;;;;;;28.70;10.90;;;10.50;99.90;;;;;;4956643;28;20031;-77
2022/09/20 07:15:31;;;;;;;21.23;8.65;;;10.60;99.90;;;;;;4961222;28;20066;-77
2022/09/20 07:17:56;;;;;;;38.83;15.23;;;10.70;99.90;;;;;;4959667;28;20094;-77
2022/09/20 07:20:22;;;;;;;32.95;12.55;;;10.70;99.90;;;;;;4950738;28;20036;-77
2022/09/20 07:22:47;;;;;;;32.15;12.55;;;10.70;99.90;;;;;;4954572;28;20031;-78
2022/09/20 07:25:13;;;;;;;37.63;12.32;;;10.90;99.90;;;;;;4933414;28;20872;-78
2022/09/20 07:27:39;;;;;;;27.83;10.40;;;11.00;99.90;;;;;;4946676;28;20039;-78
2022/09/20 07:30:05;;;;;;;35.38;12.85;;;11.10;99.90;;;;;;4930454;28;20395;-78
2022/09/20 07:32:32;;;;;;;32.38;13.80;;;11.10;99.90;;;;;;4952890;28;20137;-78
2022/09/20 07:34:58;;;;;;;36.17;12.05;;;11.20;99.90;;;;;;4954299;28;20083;-78
2022/09/20 07:37:23;;;;;;;28.13;9.63;;;11.30;99.90;;;;;;4953362;28;20035;-78
2022/09/20 07:39:49;;;;;;;25.77;9.88;;;11.30;99.90;;;;;;4924495;28;20086;-77
2022/09/20 07:42:14;;;;;;;23.58;10.65;;;11.30;99.90;;;;;;4953265;28;20134;-78
2022/09/20 07:44:41;;;;;;;33.03;11.70;;;11.40;99.90;;;;;;4945937;28;20101;-78
2022/09/20 07:47:07;;;;;;;28.27;10.10;;;11.50;99.90;;;;;;4954414;28;20062;-78
2022/09/20 07:49:32;;;;;;;39.03;14.23;;;11.60;99.90;;;;;;4956468;28;20353;-78
2022/09/20 07:51:58;;;;;;;22.67;8.75;;;11.80;99.90;;;;;;4957438;28;20039;-78
2022/09/20 07:54:26;;;;;;;18.67;7.25;;;11.90;99.90;;;;;;4924227;28;20050;-79
2022/09/20 07:56:51;;;;;;;19.85;6.50;;;12.10;99.90;;;;;;4955398;28;20026;-78
2022/09/20 07:59:18;;;;;;;18.55;5.15;;;12.20;99.90;;;;;;4958041;28;20466;-78
2022/09/20 08:01:43;;;;;;;9.98;4.65;;;12.30;99.90;;;;;;4942598;28;20147;-78
2022/09/20 08:04:09;;;;;;;13.57;4.68;;;12.40;99.90;;;;;;4955577;28;20031;-78
2022/09/20 08:06:38;;;;;;;11.32;2.92;;;12.60;99.90;;;;;;4926589;28;20517;-77
2022/09/20 08:09:04;;;;;;;11.52;3.08;;;12.70;99.90;;;;;;4928548;28;20039;-78
2022/09/20 08:11:30;;;;;;;12.52;4.90;;;12.90;99.90;;;;;;4946163;28;20039;-78
2022/09/20 08:13:57;;;;;;;13.05;3.33;;;12.90;99.90;;;;;;4921465;28;20050;-78
2022/09/20 08:16:23;;;;;;;16.60;3.28;;;13.10;99.90;;;;;;4955124;28;20020;-78
2022/09/20 08:18:58;;;;;;;11.80;3.33;;;13.20;99.90;;;;;;4927048;28;20042;-78
2022/09/20 08:21:30;;;;;;;11.48;2.58;;;13.40;99.90;;;;;;4926293;28;20038;-78
2022/09/20 08:23:56;;;;;;;16.77;3.97;;;13.50;99.90;;;;;;4927848;28;20047;-78
2022/09/20 08:26:23;;;;;;;23.23;3.78;;;13.60;99.90;;;;;;4930561;28;20035;-78
2022/09/20 08:28:53;;;;;;;17.23;2.45;;;13.80;99.90;;;;;;4961971;28;20502;-78
2022/09/20 08:31:20;;;;;;;8.73;2.45;;;14.00;99.90;;;;;;4943330;28;20034;-78
2022/09/20 08:33:46;;;;;;;16.15;2.70;;;14.20;99.90;;;;;;4959546;28;20499;-78
2022/09/20 08:36:13;;;;;;;6.07;1.83;;;14.40;99.90;;;;;;4966780;28;20112;-78
2022/09/20 08:38:39;;;;;;;6.82;2.22;;;14.50;99.90;;;;;;4960023;28;20519;-78
2022/09/20 08:41:11;;;;;;;7.00;2.67;;;14.50;99.90;;;;;;4945617;28;20038;-78
2022/09/20 08:44:25;;;;;;;18.63;2.42;;;14.60;99.90;;;;;;4943290;28;20042;-78
2022/09/20 08:47:21;;;;;;;13.30;2.13;;;14.80;99.90;;;;;;4958889;28;20118;-78
2022/09/20 08:49:48;;;;;;;7.85;2.03;;;15.00;99.90;;;;;;4974075;28;20050;-77
2022/09/20 08:52:44;;;;;;;9.57;1.77;;;15.10;99.90;;;;;;4941277;28;20073;-77
2022/09/20 08:55:20;;;;;;;5.95;1.55;;;15.20;99.90;;;;;;4955822;28;20147;-77
2022/09/20 08:57:48;;;;;;;9.15;2.72;;;15.40;99.90;;;;;;4930465;28;20097;-77
2022/09/20 09:00:16;;;;;;;7.85;1.75;;;15.50;99.90;;;;;;4948312;28;20701;-77
2022/09/20 09:02:42;;;;;;;8.07;2.05;;;15.70;99.90;;;;;;4950325;28;20519;-77
2022/09/20 09:05:27;;;;;;;10.60;2.50;;;16.00;99.90;;;;;;4944597;28;20035;-77
2022/09/20 09:07:52;;;;;;;6.93;2.03;;;16.10;99.90;;;;;;4956468;28;20039;-79
2022/09/20 09:10:18;;;;;;;7.70;3.20;;;16.10;99.90;;;;;;4933396;28;20053;-78
2022/09/20 09:12:45;;;;;;;14.18;3.95;;;16.20;99.90;;;;;;4955375;28;20463;-78
2022/09/20 09:15:27;;;;;;;8.02;4.60;;;16.30;99.90;;;;;;4927132;28;20027;-77
2022/09/20 09:17:53;;;;;;;12.02;5.93;;;16.40;99.90;;;;;;4974477;28;20503;-78
2022/09/20 09:20:23;;;;;;;11.30;4.40;;;16.50;99.90;;;;;;4928464;28;20109;-78
2022/09/20 09:23:03;;;;;;;12.82;5.40;;;16.70;99.90;;;;;;4930462;28;20027;-77
2022/09/20 09:25:36;;;;;;;14.02;3.65;;;16.90;99.90;;;;;;4932820;28;20034;-78
2022/09/20 09:28:08;;;;;;;5.63;3.15;;;17.00;99.90;;;;;;4948852;28;20680;-77
2022/09/20 09:30:42;;;;;;;8.48;3.53;;;17.10;99.90;;;;;;4961701;28;20031;-77
2022/09/20 09:33:27;;;;;;;9.45;2.30;;;17.20;99.90;;;;;;4949761;28;20031;-78
2022/09/20 09:36:03;;;;;;;7.60;1.67;;;17.40;99.90;;;;;;4959233;28;20410;-78
2022/09/20 09:38:30;;;;;;;5.13;1.70;;;17.50;99.90;;;;;;4965330;28;20085;-77
2022/09/20 09:40:57;;;;;;;4.07;1.85;;;17.60;99.90;;;;;;4960335;28;20059;-77
2022/09/20 09:43:28;;;;;;;4.55;1.48;;;17.70;99.90;;;;;;4929100;28;20114;-78
2022/09/20 09:45:55;;;;;;;8.82;2.05;;;17.60;99.90;;;;;;4961416;28;20043;-78
2022/09/20 09:48:25;;;;;;;5.53;1.52;;;17.70;99.90;;;;;;4932065;28;20027;-78
2022/09/20 09:51:14;;;;;;;9.35;1.58;;;17.60;99.90;;;;;;4948790;28;20090;-78
2022/09/20 09:53:39;;;;;;;10.15;1.85;;;17.50;99.90;;;;;;4956047;28;20123;-78
2022/09/20 09:56:56;;;;;;;10.20;1.67;;;17.50;99.90;;;;;;4942598;28;20078;-78
2022/09/20 09:59:41;;;;;;;7.68;1.60;;;17.50;99.90;;;;;;4945500;28;20559;-78
2022/09/20 10:02:31;;;;;;;7.45;1.15;;;17.40;99.90;;;;;;4956133;28;20517;-78
2022/09/20 10:05:15;;;;;;;5.88;2.65;;;17.40;99.90;;;;;;4961142;28;20522;-79
2022/09/20 10:08:15;;;;;;;10.02;1.25;;;17.40;99.90;;;;;;4975174;28;20031;-78
2022/09/20 10:11:09;;;;;;;6.22;1.30;;;17.40;99.90;;;;;;4934178;28;20454;-79
2022/09/20 10:13:40;;;;;;;7.10;1.55;;;17.50;99.90;;;;;;4936926;28;20032;-78
2022/09/20 10:16:16;;;;;;;8.00;1.45;;;17.50;99.90;;;;;;4942065;28;20047;-78
2022/09/20 10:18:57;;;;;;;4.43;1.25;;;17.50;99.90;;;;;;4973563;28;20043;-79
2022/09/20 10:21:51;;;;;;;6.88;1.50;;;17.60;99.90;;;;;;4965168;28;20038;-78
2022/09/20 10:24:37;;;;;;;6.35;1.75;;;17.70;99.90;;;;;;4957968;28;20114;-79
2022/09/20 10:27:22;;;;;;;5.40;1.98;;;17.70;99.90;;;;;;4948524;28;20483;-79
2022/09/20 10:30:18;;;;;;;7.85;1.92;;;17.70;99.90;;;;;;4946425;28;20482;-78
2022/09/20 10:32:52;;;;;;;9.07;1.70;;;17.60;99.90;;;;;;4928107;29;20035;-79
2022/09/20 10:35:35;;;;;;;7.00;1.83;;;17.50;99.90;;;;;;4926752;28;20322;-78
2022/09/20 10:38:04;;;;;;;10.05;1.83;;;17.30;99.90;;;;;;4933213;28;20121;-79
2022/09/20 10:44:04;;;;;;;8.55;1.90;;;17.20;99.90;;;;;;4940991;28;20530;-78
2022/09/20 10:46:45;;;;;;;4.93;1.00;;;17.20;99.90;;;;;;4931234;28;20032;-79
2022/09/20 10:49:32;;;;;;;3.15;1.00;;;17.20;99.90;;;;;;4944939;28;20055;-78
2022/09/20 10:52:21;;;;;;;3.75;1.00;;;17.10;99.90;;;;;;4952219;28;20058;-79
2022/09/20 10:55:08;;;;;;;4.30;0.90;;;17.10;99.90;;;;;;4954196;28;20046;-78
2022/09/20 10:57:44;;;;;;;4.43;1.17;;;17.10;99.90;;;;;;4943310;28;20035;-78
2022/09/20 11:00:22;;;;;;;6.07;1.30;;;17.30;99.90;;;;;;4940097;28;20032;-79
2022/09/20 11:03:32;;;;;;;3.13;1.10;;;17.40;99.90;;;;;;4941783;28;20058;-79
2022/09/20 11:06:25;;;;;;;3.00;0.77;;;17.50;99.90;;;;;;4947997;28;20028;-79
2022/09/20 11:08:54;;;;;;;8.75;1.55;;;17.70;99.90;;;;;;4929016;28;20059;-79
2022/09/20 11:11:31;;;;;;;6.20;1.38;;;17.90;99.90;;;;;;4902043;28;20047;-79
2022/09/20 11:14:12;;;;;;;6.38;1.20;;;18.00;99.90;;;;;;4953278;28;20041;-79
2022/09/20 11:16:55;;;;;;;2.35;1.08;;;18.10;99.90;;;;;;4956986;28;20387;-81
2022/09/20 11:19:27;;;;;;;3.75;1.73;;;18.20;99.90;;;;;;4934641;28;20373;-81
2022/09/20 11:21:57;;;;;;;6.97;1.13;;;18.30;99.90;;;;;;4963733;28;20065;-81
2022/09/20 11:24:36;;;;;;;7.45;0.77;;;18.30;99.90;;;;;;4931616;28;20034;-82
2022/09/20 11:27:06;;;;;;;2.70;0.80;;;18.50;99.90;;;;;;4960694;28;20043;-81
2022/09/20 11:29:43;;;;;;;2.95;0.80;;;18.70;99.90;;;;;;4956793;28;20552;-82
2022/09/20 11:32:17;;;;;;;6.88;1.00;;;18.80;99.90;;;;;;4957535;28;20032;-81
2022/09/20 11:34:58;;;;;;;3.33;0.98;;;19.00;99.90;;;;;;4933135;28;20627;-82
2022/09/20 11:37:29;;;;;;;6.40;1.20;;;19.10;99.90;;;;;;4939693;28;20141;-82
2022/09/20 11:39:55;;;;;;;5.60;1.70;;;19.30;99.90;;;;;;4928282;28;20094;-81
2022/09/20 11:42:26;;;;;;;7.47;1.75;;;19.30;99.90;;;;;;4928415;28;20507;-82
2022/09/20 11:44:52;;;;;;;7.63;1.05;;;19.40;99.90;;;;;;4950300;28;20109;-83
2022/09/20 11:47:22;;;;;;;5.00;1.00;;;19.50;99.90;;;;;;4929966;28;20038;-82
2022/09/20 11:50:12;;;;;;;13.32;1.50;;;19.70;99.90;;;;;;4940679;28;20043;-83
2022/09/20 11:52:56;;;;;;;4.05;1.05;;;19.80;99.90;;;;;;4958872;28;20553;-83
2022/09/20 11:55:47;;;;;;;4.20;1.02;;;19.90;99.90;;;;;;4972294;28;20047;-83
2022/09/20 11:58:15;;;;;;;2.63;0.93;;;20.00;99.90;;;;;;4947651;28;20451;-82
2022/09/20 12:01:11;;;;;;;5.00;1.85;;;20.10;99.90;;;;;;4948703;28;20334;-84
2022/09/20 12:03:44;;;;;;;5.60;1.02;;;20.30;99.90;;;;;;4915257;28;20036;-83
2022/09/20 12:06:40;;;;;;;3.20;1.00;;;20.50;99.90;;;;;;4920062;28;20067;-83
2022/09/20 12:09:21;;;;;;;2.58;0.75;;;20.60;99.90;;;;;;4958682;28;20186;-83
2022/09/20 12:11:47;;;;;;;3.08;1.02;;;20.60;99.90;;;;;;4927739;28;20032;-83
2022/09/20 12:14:26;;;;;;;4.15;0.90;;;20.60;99.90;;;;;;4919901;28;20086;-82
2022/09/20 12:16:52;;;;;;;2.50;0.68;;;20.80;99.90;;;;;;4927774;28;20510;-82
2022/09/20 12:19:20;;;;;;;3.22;0.80;;;20.90;99.90;;;;;;4929159;28;20032;-84
2022/09/20 12:21:58;;;;;;;3.53;0.90;;;21.00;99.90;;;;;;4924005;28;20055;-84
2022/09/20 12:24:31;;;;;;;3.40;0.65;;;21.10;99.90;;;;;;4966998;28;20035;-82
2022/09/20 12:26:58;;;;;;;4.18;0.95;;;21.10;99.90;;;;;;4919266;28;20035;-83
2022/09/20 12:29:24;;;;;;;4.72;0.85;;;21.10;99.90;;;;;;4953128;28;20027;-83
2022/09/20 12:31:54;;;;;;;4.00;1.02;;;21.20;99.90;;;;;;4950744;28;20411;-83
2022/09/20 12:34:20;;;;;;;4.25;0.90;;;21.20;99.90;;;;;;4954974;28;20043;-83
2022/09/20 12:36:54;;;;;;;2.22;0.75;;;21.30;99.90;;;;;;4956677;28;20394;-83
2022/09/20 12:39:21;;;;;;;2.35;0.68;;;21.30;99.90;;;;;;4953441;28;20027;-83
2022/09/20 12:42:13;;;;;;;3.20;0.60;;;21.40;99.90;;;;;;4939325;28;20094;-83
2022/09/20 12:44:53;;;;;;;4.38;0.95;;;21.40;99.90;;;;;;4962592;28;20043;-83
2022/09/20 12:47:26;;;;;;;4.97;0.95;;;21.40;99.90;;;;;;4939371;28;20501;-84
2022/09/20 12:53:11;;;;;;;7.43;0.98;;;21.60;99.90;;;;;;4921283;28;20053;-85
2022/09/20 12:55:51;;;;;;;2.50;0.80;;;21.80;99.90;;;;;;4918837;28;20115;-85
2022/09/20 12:58:52;;;;;;;6.30;1.00;;;21.60;99.90;;;;;;4925875;28;20029;-85
2022/09/20 13:01:25;;;;;;;9.10;1.10;;;21.70;99.90;;;;;;4912995;28;20039;-85
2022/09/20 13:03:50;;;;;;;2.58;0.70;;;21.90;99.90;;;;;;4954491;28;20614;-85
2022/09/20 13:06:18;;;;;;;3.22;1.05;;;22.00;99.90;;;;;;4928411;28;20035;-85
2022/09/20 13:09:07;;;;;;;1.58;0.43;;;21.90;99.90;;;;;;4962208;28;20109;-85
2022/09/20 13:11:55;;;;;;;1.95;0.50;;;21.90;99.90;;;;;;4963826;28;20514;-84
2022/09/20 13:14:30;;;;;;;3.83;0.60;;;21.90;99.90;;;;;;4936316;28;20499;-85
2022/09/20 13:16:57;;;;;;;2.47;0.47;;;21.90;99.90;;;;;;4953011;28;20039;-85
2022/09/20 13:19:28;;;;;;;2.10;0.55;;;21.90;99.90;;;;;;4944924;28;20043;-85
2022/09/20 13:21:57;;;;;;;2.30;0.63;;;22.10;99.90;;;;;;4920894;29;20036;-85
2022/09/20 13:24:23;;;;;;;2.80;0.60;;;22.00;99.90;;;;;;4947559;28;20043;-85
2022/09/20 13:27:11;;;;;;;3.55;0.78;;;22.00;99.90;;;;;;4496660;28;10001141;-85
2022/09/20 13:29:43;;;;;;;2.42;0.55;;;21.90;99.90;;;;;;4915809;28;20339;-85
2022/09/20 13:32:28;;;;;;;2.70;0.57;;;21.80;99.90;;;;;;4926258;28;20032;-85
2022/09/20 13:35:09;;;;;;;0.98;0.57;;;21.80;99.90;;;;;;4935459;28;20082;-85
2022/09/20 13:37:58;;;;;;;5.13;0.85;;;21.70;99.90;;;;;;4958019;28;20061;-85
2022/09/20 13:40:33;;;;;;;2.28;0.50;;;21.70;99.90;;;;;;4941929;28;20058;-85
2022/09/20 13:43:00;;;;;;;1.88;0.60;;;21.60;99.90;;;;;;4949512;28;20485;-85
2022/09/20 13:45:27;;;;;;;5.70;0.80;;;21.50;99.90;;;;;;4929043;29;20032;-85
2022/09/20 13:47:56;;;;;;;3.65;0.63;;;21.50;99.90;;;;;;4933051;28;20055;-84
2022/09/20 13:50:25;;;;;;;1.25;0.50;;;21.50;99.90;;;;;;4928034;28;20491;-84
2022/09/20 13:52:53;;;;;;;0.93;0.68;;;21.40;99.90;;;;;;4945199;28;20561;-84